Time;durP1;ratioP1;P1;durP2;ratioP2;P2;SDS_P1;SDS_P2;PMS_P1;PMS_P2;Temp;Humidity;BMP_temperature;BMP_pressure;BME280_temperature;BME280_humidity;BME280_pressure;Samples;Min_cycle;Max_cycle;Signal;HPM_P1;HPM_P2
2021/01/04 00:01:33;;;;;;;49.45;26.63;;;2.90;99.90;;;;;;5083755;28;20423;-52
2021/01/04 00:04:20;;;;;;;46.00;24.13;;;3.00;99.90;;;;;;5078676;28;20431;-51
2021/01/04 00:07:18;;;;;;;43.78;24.80;;;3.00;99.90;;;;;;5090968;28;20871;-51
2021/01/04 00:10:33;;;;;;;46.55;25.27;;;3.00;99.90;;;;;;5048942;28;20418;-52
2021/01/04 00:13:06;;;;;;;47.50;26.25;;;3.00;99.90;;;;;;5070488;28;20390;-52
2021/01/04 00:15:39;;;;;;;47.95;26.67;;;3.00;99.90;;;;;;5073335;28;20396;-52
2021/01/04 00:18:26;;;;;;;47.75;25.73;;;3.00;99.90;;;;;;5081127;28;20378;-52
2021/01/04 00:21:22;;;;;;;43.30;26.15;;;3.00;99.90;;;;;;5085872;28;20435;-52
2021/01/04 00:24:03;;;;;;;45.47;25.33;;;3.00;99.90;;;;;;5078525;28;20403;-52
2021/01/04 00:26:39;;;;;;;42.77;24.07;;;3.00;99.90;;;;;;5069304;28;20376;-52
2021/01/04 00:29:05;;;;;;;42.65;25.02;;;3.10;99.90;;;;;;5074355;28;20422;-52
2021/01/04 00:31:35;;;;;;;45.50;24.92;;;3.10;99.90;;;;;;5083282;28;20463;-52
2021/01/04 00:34:13;;;;;;;47.33;25.17;;;5.50;99.90;;;;;;5081916;28;20406;-52
2021/01/04 00:37:17;;;;;;;44.65;25.27;;;4.00;99.90;;;;;;5076580;28;20860;-52
2021/01/04 00:40:24;;;;;;;42.70;24.00;;;3.10;99.90;;;;;;5061537;28;20430;-52
2021/01/04 00:42:50;;;;;;;45.72;25.73;;;3.10;99.90;;;;;;5075855;28;20836;-52
2021/01/04 00:45:22;;;;;;;45.38;25.00;;;3.20;99.90;;;;;;5077643;28;20407;-52
2021/01/04 00:48:03;;;;;;;43.80;23.90;;;3.10;99.90;;;;;;5086936;28;20381;-52
2021/01/04 00:50:51;;;;;;;45.08;24.58;;;3.20;99.90;;;;;;5086255;28;20417;-52
2021/01/04 00:53:30;;;;;;;43.35;24.08;;;3.20;99.90;;;;;;5086471;28;20407;-52
2021/01/04 00:56:02;;;;;;;45.63;25.70;;;4.70;99.90;;;;;;5086977;28;20925;-52
2021/01/04 00:59:01;;;;;;;45.35;24.55;;;5.90;99.90;;;;;;5091314;28;20395;-52
2021/01/04 01:01:50;;;;;;;44.33;24.90;;;3.20;99.90;;;;;;5084151;28;20421;-52
2021/01/04 01:04:25;;;;;;;43.53;23.52;;;3.20;99.90;;;;;;5079800;28;20479;-52
2021/01/04 01:07:14;;;;;;;39.47;22.92;;;3.20;99.90;;;;;;5076889;28;20393;-52
2021/01/04 01:09:47;;;;;;;41.55;23.73;;;3.20;99.90;;;;;;5086380;28;20437;-52
2021/01/04 01:12:19;;;;;;;43.35;24.33;;;5.60;99.90;;;;;;5087145;28;20394;-57
2021/01/04 01:15:06;;;;;;;46.38;25.50;;;5.80;99.90;;;;;;5088593;28;20427;-52
2021/01/04 01:18:07;;;;;;;42.83;23.33;;;3.10;99.90;;;;;;5086115;28;20562;-52
2021/01/04 01:20:38;;;;;;;42.35;22.92;;;3.00;99.90;;;;;;5093172;28;21078;-52
2021/01/04 01:23:08;;;;;;;46.55;24.73;;;2.90;99.90;;;;;;5088569;28;20394;-52
2021/01/04 01:25:48;;;;;;;46.15;24.45;;;5.20;99.90;;;;;;5083713;28;20425;-52
2021/01/04 01:28:51;;;;;;;45.63;24.50;;;4.70;99.90;;;;;;5084230;28;20406;-56
2021/01/04 01:31:31;;;;;;;47.83;24.85;;;3.00;99.90;;;;;;5075180;28;20821;-52
2021/01/04 01:34:21;;;;;;;46.33;24.90;;;4.40;99.90;;;;;;5082191;28;20392;-52
2021/01/04 01:37:01;;;;;;;50.83;26.13;;;2.90;99.90;;;;;;5091407;28;20385;-52
2021/01/04 01:39:33;;;;;;;49.72;25.15;;;2.90;99.90;;;;;;5094658;28;20400;-54
2021/01/04 01:42:23;;;;;;;44.97;24.38;;;4.10;99.90;;;;;;5080603;28;20404;-52
2021/01/04 01:45:13;;;;;;;47.80;25.30;;;2.90;99.90;;;;;;5072794;28;20849;-51
2021/01/04 01:47:44;;;;;;;49.92;25.25;;;2.90;99.90;;;;;;5074105;28;20469;-52
2021/01/04 01:50:38;;;;;;;44.95;25.70;;;5.80;99.90;;;;;;5075955;28;20433;-52
2021/01/04 01:53:06;;;;;;;48.35;25.52;;;3.00;99.90;;;;;;5072856;28;20935;-52
2021/01/04 01:55:35;;;;;;;46.97;24.73;;;4.40;99.90;;;;;;5078257;28;20399;-52
2021/01/04 01:58:25;;;;;;;44.80;25.27;;;3.00;99.90;;;;;;5086529;28;20410;-52
2021/01/04 02:00:53;;;;;;;51.58;25.85;;;3.00;99.90;;;;;;5081301;28;20900;-52
2021/01/04 02:03:29;;;;;;;51.00;25.48;;;3.00;99.90;;;;;;5077403;28;20394;-52
2021/01/04 02:06:16;;;;;;;47.90;25.95;;;5.40;99.90;;;;;;5082880;28;20408;-53
2021/01/04 02:08:52;;;;;;;41.40;23.88;;;2.90;99.90;;;;;;5081086;28;20425;-52
2021/01/04 02:11:35;;;;;;;47.65;24.75;;;4.20;99.90;;;;;;5077697;28;20395;-52
2021/01/04 02:14:08;;;;;;;46.38;24.73;;;5.20;99.90;;;;;;5089435;28;20732;-52
2021/01/04 02:16:59;;;;;;;42.20;23.50;;;3.00;99.90;;;;;;5069391;28;21003;-52
2021/01/04 02:19:35;;;;;;;48.55;25.27;;;2.90;99.90;;;;;;5060699;28;20427;-52
2021/01/04 02:22:35;;;;;;;44.20;24.30;;;5.30;99.90;;;;;;5077215;28;20829;-52
2021/01/04 02:25:00;;;;;;;47.33;26.00;;;3.00;99.90;;;;;;5072469;28;20438;-51
2021/01/04 02:27:33;;;;;;;49.20;25.83;;;3.60;99.90;;;;;;5077605;28;20386;-52
2021/01/04 02:29:59;;;;;;;44.28;23.70;;;4.20;99.90;;;;;;5087869;28;20417;-52
2021/01/04 02:32:25;;;;;;;48.00;24.55;;;3.20;99.90;;;;;;5091424;28;20408;-54
2021/01/04 02:34:54;;;;;;;45.33;24.20;;;3.20;99.90;;;;;;5080880;28;20383;-52
2021/01/04 02:37:22;;;;;;;48.40;24.42;;;3.90;99.90;;;;;;5081227;28;20524;-52
2021/01/04 02:39:54;;;;;;;44.77;24.17;;;4.90;99.90;;;;;;5081274;28;20374;-52
2021/01/04 02:42:29;;;;;;;43.42;23.85;;;3.30;99.90;;;;;;5086431;28;20475;-52
2021/01/04 02:44:57;;;;;;;48.92;25.92;;;3.80;99.90;;;;;;5081474;28;20915;-52
2021/01/04 02:47:32;;;;;;;43.97;23.92;;;5.60;99.90;;;;;;5091157;28;20389;-52
2021/01/04 02:50:16;;;;;;;42.85;22.88;;;3.30;99.90;;;;;;5081517;28;20925;-51
2021/01/04 02:53:08;;;;;;;43.58;23.45;;;3.40;99.90;;;;;;5082883;28;20400;-52
2021/01/04 02:55:58;;;;;;;47.22;24.67;;;3.40;99.90;;;;;;5078460;28;20462;-52
2021/01/04 02:58:42;;;;;;;45.80;24.20;;;3.20;99.90;;;;;;5071917;28;20440;-52
2021/01/04 03:01:16;;;;;;;46.92;24.48;;;5.30;99.90;;;;;;5080601;28;20813;-52
2021/01/04 03:03:44;;;;;;;49.08;26.13;;;3.10;99.90;;;;;;5075931;28;20500;-52
2021/01/04 03:06:13;;;;;;;42.70;23.85;;;3.10;99.90;;;;;;5082592;28;20770;-52
2021/01/04 03:08:40;;;;;;;44.67;24.27;;;2.90;99.90;;;;;;5083918;28;20867;-52
2021/01/04 03:11:11;;;;;;;48.17;24.98;;;4.60;99.90;;;;;;5082212;28;20382;-52
2021/01/04 03:13:56;;;;;;;47.63;25.52;;;4.30;99.90;;;;;;5091004;28;20887;-52
2021/01/04 03:16:40;;;;;;;49.80;25.80;;;3.10;99.90;;;;;;5077434;28;20441;-52
2021/01/04 03:19:11;;;;;;;48.53;25.30;;;3.10;99.90;;;;;;5083152;28;20391;-53
2021/01/04 03:21:39;;;;;;;49.93;27.20;;;3.10;99.90;;;;;;5083618;28;20374;-53
2021/01/04 03:24:14;;;;;;;49.67;26.38;;;3.80;99.90;;;;;;5077005;28;20399;-52
2021/01/04 03:26:51;;;;;;;52.53;28.08;;;3.10;99.90;;;;;;5074525;28;20404;-52
2021/01/04 03:29:17;;;;;;;51.25;26.95;;;3.50;99.90;;;;;;5081109;28;20405;-53
2021/01/04 03:31:43;;;;;;;46.13;25.25;;;3.00;99.90;;;;;;5077307;28;20391;-52
2021/01/04 03:34:09;;;;;;;49.67;27.17;;;3.00;99.90;;;;;;5082903;28;20461;-52
2021/01/04 03:36:34;;;;;;;59.67;29.25;;;3.80;99.90;;;;;;5079073;28;20385;-52
2021/01/04 03:39:00;;;;;;;53.57;28.40;;;3.10;99.90;;;;;;5079742;28;20407;-52
2021/01/04 03:41:25;;;;;;;56.30;28.00;;;3.10;99.90;;;;;;5084256;28;20394;-52
2021/01/04 03:43:51;;;;;;;51.20;27.42;;;5.60;99.90;;;;;;5083476;28;20766;-52
2021/01/04 03:46:17;;;;;;;52.97;27.00;;;4.20;99.90;;;;;;5079817;28;20406;-56
2021/01/04 03:48:42;;;;;;;52.42;27.15;;;3.00;99.90;;;;;;5077275;28;20415;-52
2021/01/04 03:51:09;;;;;;;50.90;26.50;;;3.00;99.90;;;;;;5084059;28;20412;-52
2021/01/04 03:53:35;;;;;;;50.30;27.27;;;5.30;99.90;;;;;;5080314;28;20384;-53
2021/01/04 03:56:00;;;;;;;56.57;27.60;;;3.70;99.90;;;;;;5089370;28;20402;-52
2021/01/04 03:58:26;;;;;;;49.22;26.88;;;2.90;99.90;;;;;;5083322;28;20390;-52
2021/01/04 04:00:52;;;;;;;57.70;29.90;;;3.00;99.90;;;;;;5082003;28;20382;-51
2021/01/04 04:03:17;;;;;;;55.73;28.17;;;2.90;99.90;;;;;;5089028;28;20736;-54
2021/01/04 04:05:43;;;;;;;60.60;29.85;;;3.70;99.90;;;;;;5074902;28;20428;-52
2021/01/04 04:08:10;;;;;;;57.00;28.20;;;3.10;99.90;;;;;;5089633;28;20386;-52
2021/01/04 04:10:35;;;;;;;58.17;29.73;;;1.50;99.90;;;;;;5075814;28;20546;-52
2021/01/04 04:13:01;;;;;;;59.80;29.02;;;5.40;99.90;;;;;;5089172;28;20824;-52
2021/01/04 04:15:26;;;;;;;56.33;30.10;;;2.70;99.90;;;;;;5082546;28;20398;-52
2021/01/04 04:17:52;;;;;;;60.47;31.13;;;4.20;99.90;;;;;;5081810;28;20480;-52
2021/01/04 04:20:22;;;;;;;58.75;29.23;;;2.70;99.90;;;;;;5079920;28;20424;-53
2021/01/04 04:22:49;;;;;;;60.05;29.75;;;2.70;99.90;;;;;;5084349;28;20889;-52
2021/01/04 04:25:17;;;;;;;63.30;31.58;;;5.30;99.90;;;;;;5089885;28;20380;-56
2021/01/04 04:27:43;;;;;;;61.45;29.63;;;1.30;99.90;;;;;;5076510;28;20407;-52
2021/01/04 04:30:12;;;;;;;58.90;29.07;;;5.70;99.90;;;;;;5087616;28;20402;-52
2021/01/04 04:32:37;;;;;;;60.17;30.92;;;2.80;99.90;;;;;;5081362;28;20429;-53
2021/01/04 04:35:05;;;;;;;63.63;30.25;;;2.80;99.90;;;;;;5080516;28;20830;-52
2021/01/04 04:37:31;;;;;;;56.40;28.42;;;2.80;99.90;;;;;;5080400;28;20394;-51
2021/01/04 04:39:56;;;;;;;53.50;29.23;;;2.80;99.90;;;;;;5082343;28;20481;-52
2021/01/04 04:42:22;;;;;;;56.58;29.50;;;2.80;99.90;;;;;;5082075;28;20931;-52
2021/01/04 04:44:53;;;;;;;60.72;30.30;;;2.70;99.90;;;;;;5080132;28;20898;-52
2021/01/04 04:47:40;;;;;;;58.00;29.13;;;2.70;99.90;;;;;;5076534;28;20733;-52
2021/01/04 04:50:24;;;;;;;61.45;30.35;;;2.70;99.90;;;;;;5069823;28;20407;-52
2021/01/04 04:53:25;;;;;;;57.42;28.75;;;2.70;99.90;;;;;;5072435;28;20877;-52
2021/01/04 04:56:31;;;;;;;57.30;28.67;;;2.80;99.90;;;;;;5074378;28;20382;-52
2021/01/04 04:59:19;;;;;;;59.45;30.70;;;2.80;99.90;;;;;;5072059;28;20490;-52
2021/01/04 05:01:59;;;;;;;56.15;29.48;;;2.90;99.90;;;;;;5081313;28;20469;-52
2021/01/04 05:04:52;;;;;;;54.10;29.67;;;3.50;99.90;;;;;;5073757;28;20478;-52
2021/01/04 05:07:29;;;;;;;59.87;29.40;;;2.90;99.90;;;;;;5068919;28;20391;-53
2021/01/04 05:09:58;;;;;;;55.20;28.67;;;4.10;99.90;;;;;;5075233;28;20412;-52
2021/01/04 05:12:40;;;;;;;51.40;27.75;;;3.00;99.90;;;;;;5079955;28;21307;-51
2021/01/04 05:15:36;;;;;;;54.30;27.95;;;2.90;99.90;;;;;;5077381;28;20790;-52
2021/01/04 05:18:20;;;;;;;55.13;28.52;;;2.90;99.90;;;;;;5091116;28;20477;-52
2021/01/04 05:20:46;;;;;;;52.75;28.17;;;5.60;99.90;;;;;;5079626;28;20387;-52
2021/01/04 05:23:41;;;;;;;55.22;28.75;;;2.90;99.90;;;;;;5091090;28;20400;-52
2021/01/04 05:26:37;;;;;;;54.00;27.92;;;2.80;99.90;;;;;;5081948;28;20395;-51
2021/01/04 05:29:06;;;;;;;53.83;28.40;;;2.80;99.90;;;;;;5092679;28;20415;-52
2021/01/04 05:32:00;;;;;;;57.35;28.33;;;2.80;99.90;;;;;;5087342;28;20840;-52
2021/01/04 05:34:43;;;;;;;54.40;28.77;;;2.90;99.90;;;;;;5079515;28;20874;-52
2021/01/04 05:38:02;;;;;;;55.38;28.95;;;2.90;99.90;;;;;;5093286;28;20451;-53
2021/01/04 05:40:58;;;;;;;55.22;28.38;;;2.90;99.90;;;;;;5029067;28;20406;-52
2021/01/04 05:43:58;;;;;;;59.33;29.10;;;2.90;99.90;;;;;;5073664;28;20408;-52
2021/01/04 05:46:36;;;;;;;57.00;27.98;;;3.00;99.90;;;;;;5082055;28;20384;-52
2021/01/04 05:49:27;;;;;;;55.03;28.53;;;3.70;99.90;;;;;;5084053;28;20414;-52
2021/01/04 05:51:53;;;;;;;53.17;28.17;;;3.00;99.90;;;;;;5085940;28;20408;-52
2021/01/04 05:54:33;;;;;;;55.15;28.08;;;2.90;99.90;;;;;;5080969;28;20397;-52
2021/01/04 05:57:15;;;;;;;52.63;28.53;;;2.90;99.90;;;;;;5072953;28;20376;-52
2021/01/04 05:59:58;;;;;;;52.05;27.40;;;2.90;99.90;;;;;;5079047;28;20396;-52
2021/01/04 06:02:28;;;;;;;57.45;27.85;;;3.40;99.90;;;;;;5074445;28;20443;-53
2021/01/04 06:05:11;;;;;;;50.15;26.65;;;4.90;99.90;;;;;;5084265;28;20709;-52
2021/01/04 06:07:39;;;;;;;50.00;26.40;;;3.00;99.90;;;;;;5092634;28;20370;-52
2021/01/04 06:10:08;;;;;;;55.80;27.52;;;4.00;99.90;;;;;;5078588;28;20427;-52
2021/01/04 06:12:38;;;;;;;57.05;28.35;;;3.00;99.90;;;;;;5085038;28;21213;-53
2021/01/04 06:15:05;;;;;;;50.80;26.98;;;4.70;99.90;;;;;;5081002;28;20423;-52
2021/01/04 06:17:33;;;;;;;56.30;27.60;;;3.00;99.90;;;;;;5071828;28;20397;-52
2021/01/04 06:20:18;;;;;;;57.13;27.80;;;3.00;99.90;;;;;;5081369;28;20387;-52
2021/01/04 06:22:44;;;;;;;52.42;27.10;;;2.90;99.90;;;;;;5092931;28;20794;-52
2021/01/04 06:25:10;;;;;;;53.38;28.52;;;5.60;99.90;;;;;;5083625;28;20402;-52
2021/01/04 06:27:43;;;;;;;60.80;27.58;;;2.90;99.90;;;;;;5083254;28;20432;-52
2021/01/04 06:30:29;;;;;;;54.78;27.65;;;4.00;99.90;;;;;;5083027;28;20415;-52
2021/01/04 06:33:04;;;;;;;55.70;26.10;;;4.50;99.90;;;;;;5080829;28;20466;-53
2021/01/04 06:35:32;;;;;;;56.67;28.35;;;2.90;99.90;;;;;;5090910;28;20790;-54
2021/01/04 06:38:25;;;;;;;52.65;27.60;;;3.80;99.90;;;;;;5079142;28;20399;-52
2021/01/04 06:40:51;;;;;;;57.42;27.55;;;2.70;99.90;;;;;;5077636;28;20394;-52
2021/01/04 06:43:19;;;;;;;56.75;27.67;;;4.10;99.90;;;;;;5079972;28;20389;-56
2021/01/04 06:46:22;;;;;;;55.70;28.45;;;2.70;99.90;;;;;;5086049;28;20952;-52
2021/01/04 06:49:06;;;;;;;59.27;28.00;;;2.80;99.90;;;;;;5080546;28;20415;-52
2021/01/04 06:51:51;;;;;;;55.38;27.40;;;3.80;99.90;;;;;;5075644;28;20395;-50
2021/01/04 06:54:31;;;;;;;53.58;26.02;;;2.90;99.90;;;;;;5074546;28;20879;-54
2021/01/04 06:57:16;;;;;;;53.40;26.97;;;4.40;99.90;;;;;;5078168;28;20441;-48
2021/01/04 06:59:47;;;;;;;51.60;26.70;;;2.80;99.90;;;;;;5097087;28;20380;-52
2021/01/04 07:02:31;;;;;;;55.90;27.90;;;2.70;99.90;;;;;;5101149;28;20418;-54
2021/01/04 07:05:14;;;;;;;55.40;28.00;;;4.50;99.90;;;;;;5104210;28;20854;-52
2021/01/04 07:08:07;;;;;;;60.70;27.95;;;2.60;99.90;;;;;;5105652;28;20384;-53
2021/01/04 07:10:53;;;;;;;60.22;28.30;;;2.60;99.90;;;;;;5094744;28;20415;-52
2021/01/04 07:14:00;;;;;;;52.95;26.38;;;2.60;99.90;;;;;;5070281;28;20387;-56
2021/01/04 07:16:32;;;;;;;57.78;27.38;;;2.50;99.90;;;;;;5044240;28;20398;-51
2021/01/04 07:19:29;;;;;;;56.50;28.27;;;3.20;99.90;;;;;;5091363;28;20385;-52
2021/01/04 07:22:32;;;;;;;54.00;27.40;;;2.50;99.90;;;;;;5076662;28;20395;-53
2021/01/04 07:25:34;;;;;;;52.22;27.48;;;2.60;99.90;;;;;;5073651;28;20405;-52
2021/01/04 07:28:08;;;;;;;53.80;27.13;;;2.50;99.90;;;;;;5072541;28;20405;-52
2021/01/04 07:30:56;;;;;;;58.17;27.20;;;2.60;99.90;;;;;;5079740;28;20523;-53
2021/01/04 07:34:11;;;;;;;52.50;25.33;;;4.00;99.90;;;;;;5090158;28;20444;-53
2021/01/04 07:36:47;;;;;;;53.28;26.58;;;2.50;99.90;;;;;;5026120;28;20877;-53
2021/01/04 07:39:42;;;;;;;60.33;27.40;;;2.50;99.90;;;;;;5027287;28;20426;-52
2021/01/04 07:42:23;;;;;;;59.40;27.80;;;2.50;99.90;;;;;;5067725;28;20392;-52
2021/01/04 07:45:05;;;;;;;54.13;25.87;;;2.60;99.90;;;;;;5070597;28;20379;-52
2021/01/04 07:48:00;;;;;;;54.92;26.25;;;2.60;99.90;;;;;;5072949;28;20513;-52
2021/01/04 07:50:51;;;;;;;54.30;26.88;;;2.60;99.90;;;;;;5083322;28;20555;-52
2021/01/04 07:53:41;;;;;;;52.75;26.13;;;4.80;99.90;;;;;;5078950;28;20939;-55
2021/01/04 07:56:30;;;;;;;50.20;25.73;;;2.70;99.90;;;;;;5070187;28;20723;-53
2021/01/04 07:59:04;;;;;;;55.38;27.42;;;5.90;99.90;;;;;;5064581;28;21001;-51
2021/01/04 08:01:46;;;;;;;54.55;27.35;;;2.80;99.90;;;;;;5097548;28;20392;-52
2021/01/04 08:04:39;;;;;;;53.97;26.80;;;2.90;99.90;;;;;;5110123;28;20377;-51
2021/01/04 08:07:19;;;;;;;51.23;24.80;;;2.90;99.90;;;;;;5095735;28;20392;-51
2021/01/04 08:10:03;;;;;;;52.05;25.40;;;2.90;99.90;;;;;;5102681;28;20406;-51
2021/01/04 08:13:20;;;;;;;57.55;27.08;;;3.00;99.90;;;;;;5093059;28;20476;-52
2021/01/04 08:16:11;;;;;;;56.13;27.13;;;3.00;99.90;;;;;;5043441;28;20400;-51
2021/01/04 08:18:37;;;;;;;52.65;26.02;;;2.90;99.90;;;;;;5068045;28;20628;-51
2021/01/04 08:21:28;;;;;;;52.40;26.33;;;5.20;99.90;;;;;;5074747;28;20895;-54
2021/01/04 08:24:23;;;;;;;54.20;27.63;;;2.90;99.90;;;;;;5074573;28;20507;-51
2021/01/04 08:27:13;;;;;;;48.88;25.38;;;2.90;99.90;;;;;;5089873;28;20386;-51
2021/01/04 08:29:51;;;;;;;54.83;26.20;;;2.90;99.90;;;;;;5075671;28;20473;-52
2021/01/04 08:32:21;;;;;;;53.17;25.25;;;2.80;99.90;;;;;;5088708;28;20382;-56
2021/01/04 08:34:48;;;;;;;50.45;25.50;;;3.40;99.90;;;;;;5077552;28;20400;-51
2021/01/04 08:37:30;;;;;;;53.20;25.63;;;3.00;99.90;;;;;;5086348;28;20374;-52
2021/01/04 08:39:56;;;;;;;48.53;25.40;;;3.00;99.90;;;;;;5082682;28;20405;-51
2021/01/04 08:42:30;;;;;;;54.83;27.33;;;3.30;99.90;;;;;;5080138;28;20378;-52
2021/01/04 08:45:09;;;;;;;54.03;27.30;;;3.50;99.90;;;;;;5089364;28;20863;-53
2021/01/04 08:47:56;;;;;;;56.10;27.17;;;3.00;99.90;;;;;;5079448;28;20398;-51
2021/01/04 08:50:35;;;;;;;54.70;26.63;;;3.10;99.90;;;;;;5085310;28;20406;-56
2021/01/04 08:53:20;;;;;;;56.08;26.15;;;3.40;99.90;;;;;;5077777;28;20432;-51
2021/01/04 08:55:46;;;;;;;54.20;27.90;;;5.50;99.90;;;;;;5097649;28;20458;-51
2021/01/04 08:58:21;;;;;;;67.82;31.98;;;3.00;99.90;;;;;;5080048;28;20395;-51
2021/01/04 09:01:19;;;;;;;57.88;28.52;;;3.40;99.90;;;;;;5092015;28;20491;-51
2021/01/04 09:03:45;;;;;;;57.55;27.83;;;3.00;99.90;;;;;;5076561;27;20423;-52
2021/01/04 09:06:26;;;;;;;69.70;31.20;;;5.40;99.90;;;;;;5093945;28;20875;-51
2021/01/04 09:08:56;;;;;;;71.22;31.05;;;4.50;99.90;;;;;;5096921;28;20417;-51
2021/01/04 09:11:22;;;;;;;71.97;31.83;;;5.00;99.90;;;;;;5082855;28;20382;-55
2021/01/04 09:13:49;;;;;;;73.55;34.58;;;4.50;99.90;;;;;;5086490;28;20432;-51
2021/01/04 09:16:29;;;;;;;65.88;31.08;;;4.60;99.90;;;;;;5084837;28;20859;-51
2021/01/04 09:19:09;;;;;;;54.47;27.45;;;3.40;99.90;;;;;;5079976;28;20425;-51
2021/01/04 09:21:40;;;;;;;53.95;28.48;;;3.30;99.90;;;;;;5079066;28;20399;-51
2021/01/04 09:24:27;;;;;;;53.07;27.93;;;3.30;99.90;;;;;;5084226;28;20492;-51
2021/01/04 09:27:05;;;;;;;52.47;26.65;;;3.30;99.90;;;;;;5092298;28;20490;-51
2021/01/04 09:29:37;;;;;;;49.75;25.45;;;5.90;99.90;;;;;;5079107;28;20423;-53
2021/01/04 09:32:15;;;;;;;46.38;24.42;;;3.30;99.90;;;;;;5086423;28;20472;-51
2021/01/04 09:34:41;;;;;;;50.22;25.38;;;3.40;99.90;;;;;;5082490;28;20388;-51
2021/01/04 09:37:08;;;;;;;44.58;23.77;;;4.20;99.90;;;;;;5072214;28;20499;-51
2021/01/04 09:39:38;;;;;;;44.10;23.00;;;3.50;99.90;;;;;;5085556;28;20404;-52
2021/01/04 09:42:06;;;;;;;45.70;25.17;;;3.60;99.90;;;;;;5078431;28;20457;-51
2021/01/04 09:44:32;;;;;;;50.60;25.67;;;3.60;99.90;;;;;;5090539;28;20413;-51
2021/01/04 09:47:10;;;;;;;50.05;25.30;;;3.50;99.90;;;;;;5079740;28;20956;-50
2021/01/04 09:49:41;;;;;;;52.55;26.70;;;3.50;99.90;;;;;;5076884;28;20410;-51
2021/01/04 09:52:21;;;;;;;51.40;27.65;;;3.60;99.90;;;;;;5075857;28;20406;-52
2021/01/04 09:54:53;;;;;;;43.05;23.30;;;3.70;99.90;;;;;;5077334;28;20865;-55
2021/01/04 09:59:54;;;;;;;48.60;24.93;;;3.70;99.90;;;;;;5317871;22;20726;-57
2021/01/04 10:02:24;;;;;;;48.40;24.40;;;3.70;99.90;;;;;;5010648;28;20446;-58
2021/01/04 10:04:50;;;;;;;49.87;24.90;;;5.80;99.90;;;;;;4999930;28;20448;-59
2021/01/04 10:07:21;;;;;;;51.08;27.75;;;3.70;99.90;;;;;;5007170;28;20404;-59
2021/01/04 10:09:50;;;;;;;51.30;26.60;;;3.80;99.90;;;;;;5006853;28;20506;-59
2021/01/04 10:12:18;;;;;;;51.55;28.02;;;3.80;99.90;;;;;;5006725;28;20405;-59
2021/01/04 10:14:45;;;;;;;49.40;28.27;;;5.80;99.90;;;;;;5010818;28;20878;-58
2021/01/04 10:17:12;;;;;;;47.65;25.48;;;5.20;99.90;;;;;;5006557;28;20936;-58
2021/01/04 10:19:50;;;;;;;49.20;25.53;;;3.80;99.90;;;;;;5007618;28;20402;-58
2021/01/04 10:22:49;;;;;;;49.63;25.00;;;3.80;99.90;;;;;;5009550;28;21199;-63
2021/01/04 10:25:42;;;;;;;45.40;25.15;;;6.50;99.90;;;;;;4997153;28;20435;-59
2021/01/04 10:28:08;;;;;;;49.13;24.77;;;4.60;99.90;;;;;;5001197;28;20412;-62
2021/01/04 10:30:35;;;;;;;52.95;26.73;;;3.80;99.90;;;;;;5010363;28;20428;-59
2021/01/04 10:33:27;;;;;;;48.03;24.70;;;5.80;99.90;;;;;;5008006;28;20432;-64
2021/01/04 10:36:22;;;;;;;47.75;24.17;;;3.50;99.90;;;;;;5004976;28;20881;-57
2021/01/04 10:39:00;;;;;;;48.28;24.45;;;4.00;99.90;;;;;;5006399;28;20496;-64
2021/01/04 10:41:29;;;;;;;48.08;24.38;;;3.50;99.90;;;;;;5010287;28;20594;-61
2021/01/04 10:44:11;;;;;;;48.60;24.67;;;3.50;99.90;;;;;;5006901;28;20401;-57
2021/01/04 10:46:39;;;;;;;46.95;25.67;;;3.50;99.90;;;;;;5008428;28;20428;-63
2021/01/04 10:49:12;;;;;;;53.70;30.17;;;3.70;99.90;;;;;;5006712;28;20816;-61
2021/01/04 10:51:47;;;;;;;47.35;25.58;;;3.80;99.90;;;;;;5010194;28;20385;-62
2021/01/04 10:54:18;;;;;;;43.80;25.25;;;5.40;99.90;;;;;;5007598;28;20381;-61
2021/01/04 10:57:12;;;;;;;45.40;25.02;;;3.60;99.90;;;;;;5006472;28;20405;-62
2021/01/04 10:59:45;;;;;;;43.75;24.25;;;3.70;99.90;;;;;;5009567;28;20501;-60
2021/01/04 11:02:11;;;;;;;48.43;24.83;;;3.70;99.90;;;;;;5007943;28;20471;-66
2021/01/04 11:04:38;;;;;;;40.43;22.27;;;3.60;99.90;;;;;;5002336;28;20420;-62
2021/01/04 11:07:13;;;;;;;40.20;22.58;;;3.70;99.90;;;;;;5009947;28;20472;-62
2021/01/04 11:09:41;;;;;;;45.28;23.75;;;5.40;99.90;;;;;;5007195;28;20516;-63
2021/01/04 11:12:09;;;;;;;43.50;24.08;;;4.40;99.90;;;;;;5009017;28;20397;-62
2021/01/04 11:14:37;;;;;;;40.50;22.80;;;4.00;99.90;;;;;;5007182;28;20483;-62
2021/01/04 11:17:11;;;;;;;44.00;23.73;;;4.00;99.90;;;;;;5007064;28;20484;-61
2021/01/04 11:19:37;;;;;;;41.15;22.20;;;5.30;99.90;;;;;;5002333;28;20417;-63
2021/01/04 11:22:15;;;;;;;41.50;22.42;;;4.10;99.90;;;;;;5008858;28;20385;-61
2021/01/04 11:24:41;;;;;;;47.42;24.45;;;4.10;99.90;;;;;;5011043;28;20866;-60
2021/01/04 11:27:07;;;;;;;44.60;25.05;;;4.00;99.90;;;;;;5007510;28;21121;-61
2021/01/04 11:29:34;;;;;;;42.47;22.88;;;4.40;99.90;;;;;;5011468;28;20408;-61
2021/01/04 11:31:59;;;;;;;41.28;23.48;;;3.80;99.90;;;;;;5004859;28;20795;-59
2021/01/04 11:34:25;;;;;;;54.15;26.65;;;3.90;99.90;;;;;;5007140;28;20397;-58
2021/01/04 11:36:51;;;;;;;47.63;24.77;;;4.60;99.90;;;;;;5005483;28;20389;-60
2021/01/04 11:39:19;;;;;;;41.13;23.33;;;3.90;99.90;;;;;;5006178;28;20499;-60
2021/01/04 11:41:45;;;;;;;39.28;22.08;;;4.20;99.90;;;;;;5007791;28;20392;-63
2021/01/04 11:44:11;;;;;;;42.97;24.05;;;3.80;99.90;;;;;;4993296;28;20726;-60
2021/01/04 11:46:37;;;;;;;46.58;24.75;;;3.90;99.90;;;;;;5005102;28;20389;-63
2021/01/04 11:49:03;;;;;;;48.40;26.63;;;3.80;99.90;;;;;;5003711;28;20500;-60
2021/01/04 11:51:29;;;;;;;42.75;23.40;;;3.80;99.90;;;;;;5002644;28;20408;-63
2021/01/04 11:53:55;;;;;;;40.15;23.50;;;3.80;99.90;;;;;;5005883;28;20509;-57
2021/01/04 11:56:22;;;;;;;45.08;23.77;;;3.80;99.90;;;;;;5003739;28;20443;-61
2021/01/04 11:58:48;;;;;;;44.92;24.27;;;3.90;99.90;;;;;;5005965;28;22214;-60
2021/01/04 12:01:15;;;;;;;42.40;22.58;;;5.40;99.90;;;;;;5007068;28;21031;-60
2021/01/04 12:03:41;;;;;;;42.57;23.50;;;4.20;99.90;;;;;;5003576;28;20474;-60
2021/01/04 12:06:09;;;;;;;38.67;22.33;;;4.80;99.90;;;;;;5006438;28;20829;-61
2021/01/04 12:08:34;;;;;;;41.75;22.60;;;4.30;99.90;;;;;;5007671;28;20459;-62
2021/01/04 12:11:00;;;;;;;40.10;23.43;;;4.20;99.90;;;;;;5008337;28;20432;-61
2021/01/04 12:13:26;;;;;;;36.73;21.90;;;4.20;99.90;;;;;;5008845;28;20381;-60
2021/01/04 12:15:53;;;;;;;37.83;21.20;;;4.10;99.90;;;;;;5004422;28;20485;-59
2021/01/04 12:18:19;;;;;;;36.42;22.05;;;4.10;99.90;;;;;;5005651;28;20401;-60
2021/01/04 12:20:44;;;;;;;37.80;21.70;;;5.20;99.90;;;;;;5007764;28;20397;-60
2021/01/04 12:23:10;;;;;;;40.00;22.75;;;5.20;99.90;;;;;;5007262;28;20404;-61
2021/01/04 12:25:36;;;;;;;46.57;26.23;;;4.00;99.90;;;;;;5009479;28;20388;-60
2021/01/04 12:28:02;;;;;;;41.15;23.30;;;4.00;99.90;;;;;;5007025;28;20770;-60
2021/01/04 12:30:28;;;;;;;44.13;24.50;;;4.00;99.90;;;;;;5008400;28;20440;-59
2021/01/04 12:32:54;;;;;;;38.55;20.25;;;4.10;99.90;;;;;;5009341;28;20412;-58
2021/01/04 12:35:21;;;;;;;36.07;20.80;;;4.20;99.90;;;;;;5008720;28;20405;-59
2021/01/04 12:37:46;;;;;;;39.90;21.65;;;4.20;99.90;;;;;;5008331;28;20385;-59
2021/01/04 12:40:14;;;;;;;36.63;21.87;;;4.20;99.90;;;;;;5009268;28;20543;-60
2021/01/04 12:42:41;;;;;;;38.75;21.20;;;4.20;99.90;;;;;;5009248;28;20495;-60
2021/01/04 12:45:08;;;;;;;35.65;19.58;;;4.20;99.90;;;;;;5008602;28;20420;-60
2021/01/04 12:47:34;;;;;;;36.30;20.80;;;4.20;99.90;;;;;;5010079;28;20468;-60
2021/01/04 12:50:00;;;;;;;36.53;21.08;;;5.50;99.90;;;;;;5005471;28;20424;-58
2021/01/04 12:52:26;;;;;;;39.17;20.98;;;4.70;99.90;;;;;;5009340;28;20429;-59
2021/01/04 12:54:51;;;;;;;38.60;21.73;;;6.20;99.90;;;;;;5007334;28;20436;-59
2021/01/04 12:57:18;;;;;;;33.60;19.13;;;3.90;99.90;;;;;;5003193;28;20402;-58
2021/01/04 12:59:44;;;;;;;36.30;19.20;;;4.00;99.90;;;;;;5004355;28;20890;-57
2021/01/04 13:02:10;;;;;;;29.25;18.42;;;4.20;99.90;;;;;;5000158;28;20494;-57
2021/01/04 13:04:41;;;;;;;33.47;18.80;;;6.60;99.90;;;;;;5004005;28;21088;-57
2021/01/04 13:07:07;;;;;;;32.50;17.67;;;4.00;99.90;;;;;;5002778;28;20418;-57
2021/01/04 13:09:33;;;;;;;38.78;21.20;;;5.00;99.90;;;;;;5005689;28;20415;-57
2021/01/04 13:12:00;;;;;;;37.53;21.55;;;4.10;99.90;;;;;;5005927;28;20399;-57
2021/01/04 13:14:25;;;;;;;41.33;21.50;;;4.30;99.90;;;;;;5005061;28;20401;-57
2021/01/04 13:16:52;;;;;;;35.47;20.27;;;4.20;99.90;;;;;;5007294;28;20399;-57
2021/01/04 13:19:18;;;;;;;41.20;21.90;;;4.10;99.90;;;;;;5006014;28;20408;-57
2021/01/04 13:21:44;;;;;;;39.30;20.90;;;4.40;99.90;;;;;;5008569;28;20809;-57
2021/01/04 13:24:14;;;;;;;36.90;20.92;;;4.10;99.90;;;;;;5004881;28;20928;-57